Bushyhead, Oklahoma
Current Conditions -  °F | °C
As of 3:55 AM on Sunday 21 Dec 2014 (Local Time) from KGCM Reporting Station
Drizzle Drizzle  
Wind Chill: 38°   Ceiling: 800
Heat Index: 41°   Visibility: 3mi
Dew Point: 41°   Wind: 5mph
Humidity: 100%   Direction: 230°SW
Pressure: 30.15"   Gusts: NA
Location:  36.5486°N, 95.4793°W
Report Text: KGCM 210955Z AUTO 23004KT 3SM DZ OVC008 05/05 A3015 RMK AO2
Loading
Personal Weather Stations






























Interactive Weather Map New forecast layout! Learn more

10-Day Weather Forecast

Advertisements
Track Severe Weather on mobile